Time;durP1;ratioP1;P1;durP2;ratioP2;P2;SDS_P1;SDS_P2;PMS_P1;PMS_P2;Temp;Humidity;BMP_temperature;BMP_pressure;BME280_temperature;BME280_humidity;BME280_pressure;Samples;Min_cycle;Max_cycle;Signal;HPM_P1;HPM_P2
2022/09/24 00:00:43;;;;;;;;;;;10.50;99.90;;;;;;5082430;28;20286;-74
2022/09/24 00:03:10;;;;;;;;;;;10.50;99.90;;;;;;5088666;28;19962;-74
2022/09/24 00:05:38;;;;;;;;;;;10.50;99.90;;;;;;5083388;28;19990;-73
2022/09/24 00:08:05;;;;;;;;;;;10.50;99.90;;;;;;5082684;28;20253;-74
2022/09/24 00:10:35;;;;;;;;;;;10.60;99.90;;;;;;5082452;28;19920;-74
2022/09/24 00:13:02;;;;;;;;;;;10.50;99.90;;;;;;5082753;28;19920;-74
2022/09/24 00:15:29;;;;;;;;;;;10.50;99.90;;;;;;5082434;28;20043;-74
2022/09/24 00:17:57;;;;;;;;;;;10.50;99.90;;;;;;5082616;28;19920;-74
2022/09/24 00:20:23;;;;;;;;;;;10.50;99.90;;;;;;5085872;28;19927;-73
2022/09/24 00:22:50;;;;;;;;;;;10.50;99.90;;;;;;5087953;28;19928;-74
2022/09/24 00:28:01;;;;;;;;;;;10.40;99.90;;;;;;5082499;28;19954;-74
2022/09/24 00:30:27;;;;;;;;;;;10.50;99.90;;;;;;5082513;28;19988;-74
2022/09/24 00:32:54;;;;;;;;;;;10.50;99.90;;;;;;5082293;28;19942;-74
2022/09/24 00:35:24;;;;;;;;;;;10.50;99.90;;;;;;5081398;28;19959;-74
2022/09/24 00:37:55;;;;;;;;;;;10.40;99.90;;;;;;5082668;28;19920;-74
2022/09/24 00:40:27;;;;;;;;;;;10.40;99.90;;;;;;5091051;28;19920;-74
2022/09/24 00:42:53;;;;;;;;;;;10.40;99.90;;;;;;5065267;28;20246;-74
2022/09/24 00:45:20;;;;;;;;;;;10.40;99.90;;;;;;5065047;28;19983;-74
2022/09/24 00:47:47;;;;;;;;;;;10.40;99.90;;;;;;5074871;28;20149;-74
2022/09/24 00:50:19;;;;;;;;;;;10.40;99.90;;;;;;5086419;28;19959;-74
2022/09/24 00:52:49;;;;;;;;;;;10.40;99.90;;;;;;5085436;28;19920;-74
2022/09/24 00:55:18;;;;;;;;;;;10.40;99.90;;;;;;5085166;28;19927;-73
2022/09/24 00:57:47;;;;;;;;;;;10.40;99.90;;;;;;5085806;28;19958;-74
2022/09/24 01:00:14;;;;;;;;;;;10.40;99.90;;;;;;5085684;28;19929;-74
2022/09/24 01:02:43;;;;;;;;;;;10.40;99.90;;;;;;5080522;28;19929;-74
2022/09/24 01:05:10;;;;;;;;;;;10.40;99.90;;;;;;5089994;28;19942;-74
2022/09/24 01:07:37;;;;;;;;;;;10.30;99.90;;;;;;5085278;28;19927;-74
2022/09/24 01:10:05;;;;;;;;;;;10.30;99.90;;;;;;5086077;28;19920;-74
2022/09/24 01:12:38;;;;;;;;;;;10.30;99.90;;;;;;5085288;28;20201;-74
2022/09/24 01:15:10;;;;;;;;;;;10.30;99.90;;;;;;5085544;28;19920;-74
2022/09/24 01:17:40;;;;;;;;;;;10.30;99.90;;;;;;5085128;28;20287;-74
2022/09/24 01:20:30;;;;;;;;;;;10.30;99.90;;;;;;5084981;28;19987;-74
2022/09/24 01:23:08;;;;;;;;;;;10.30;99.90;;;;;;5084961;28;19955;-74
2022/09/24 01:25:41;;;;;;;;;;;10.30;99.90;;;;;;5084579;28;20116;-74
2022/09/24 01:28:17;;;;;;;;;;;10.30;99.90;;;;;;5085165;28;20239;-74
2022/09/24 01:30:46;;;;;;;;;;;10.20;99.90;;;;;;5085160;28;20131;-74
2022/09/24 01:33:15;;;;;;;;;;;10.30;99.90;;;;;;5084904;28;20216;-74
2022/09/24 01:35:43;;;;;;;;;;;10.30;99.90;;;;;;5084138;28;19928;-74
2022/09/24 01:38:14;;;;;;;;;;;10.30;99.90;;;;;;5085036;28;19920;-74
2022/09/24 01:40:42;;;;;;;;;;;10.30;99.90;;;;;;5093961;28;19928;-74
2022/09/24 01:43:10;;;;;;;;;;;10.30;99.90;;;;;;5099395;28;19920;-74
2022/09/24 01:45:38;;;;;;;;;;;10.30;99.90;;;;;;5104274;28;19920;-74
2022/09/24 01:48:06;;;;;;;;;;;10.30;99.90;;;;;;5105008;28;19970;-74
2022/09/24 01:50:35;;;;;;;;;;;10.30;99.90;;;;;;5086869;28;19921;-74
2022/09/24 01:53:04;;;;;;;;;;;10.30;99.90;;;;;;5084694;28;20208;-74
2022/09/24 01:55:32;;;;;;;;;;;10.30;99.90;;;;;;5083674;28;19926;-74
2022/09/24 01:58:00;;;;;;;;;;;10.30;99.90;;;;;;5084554;28;19920;-74
2022/09/24 02:00:27;;;;;;;;;;;10.30;99.90;;;;;;5084586;28;20208;-74
2022/09/24 02:02:56;;;;;;;;;;;10.30;99.90;;;;;;5089265;28;19921;-74
2022/09/24 02:05:29;;;;;;;;;;;10.30;99.90;;;;;;5091803;28;19990;-74
2022/09/24 02:07:58;;;;;;;;;;;10.20;99.90;;;;;;5068852;28;19952;-74
2022/09/24 02:10:24;;;;;;;;;;;10.20;99.90;;;;;;5084083;28;19924;-74
2022/09/24 02:12:55;;;;;;;;;;;10.20;99.90;;;;;;5082005;28;19921;-74
2022/09/24 02:15:24;;;;;;;;;;;10.10;99.90;;;;;;5074923;28;20226;-74
2022/09/24 02:17:53;;;;;;;;;;;10.10;99.90;;;;;;5076138;28;19966;-74
2022/09/24 02:20:21;;;;;;;;;;;10.10;99.90;;;;;;5091933;28;20219;-74
2022/09/24 02:22:49;;;;;;;;;;;10.10;99.90;;;;;;5084119;28;19920;-74
2022/09/24 02:25:18;;;;;;;;;;;10.10;99.90;;;;;;5083148;28;19927;-74
2022/09/24 02:27:45;;;;;;;;;;;10.00;99.90;;;;;;5084135;28;20218;-74
2022/09/24 02:30:11;;;;;;;;;;;10.10;99.90;;;;;;5083756;28;19984;-74
2022/09/24 02:32:39;;;;;;;;;;;10.00;99.90;;;;;;5083875;28;20111;-74
2022/09/24 02:35:08;;;;;;;;;;;10.10;99.90;;;;;;5083064;28;19958;-74
2022/09/24 02:37:35;;;;;;;;;;;10.10;99.90;;;;;;5081509;28;19983;-73
2022/09/24 02:40:04;;;;;;;;;;;10.10;99.90;;;;;;5084837;28;19927;-74
2022/09/24 02:42:31;;;;;;;;;;;10.00;99.90;;;;;;5097417;28;20000;-74
2022/09/24 02:44:59;;;;;;;;;;;10.10;99.90;;;;;;5082626;28;20097;-74
2022/09/24 02:47:26;;;;;;;;;;;10.00;99.90;;;;;;5080439;28;20216;-75
2022/09/24 02:49:52;;;;;;;;;;;10.00;99.90;;;;;;5083612;28;20111;-74
2022/09/24 02:52:19;;;;;;;;;;;10.00;99.90;;;;;;5083273;28;19920;-73
2022/09/24 02:54:46;;;;;;;;;;;10.00;99.90;;;;;;5082888;28;19958;-74
2022/09/24 02:57:14;;;;;;;;;;;10.00;99.90;;;;;;5083570;28;19987;-74
2022/09/24 02:59:40;;;;;;;;;;;10.00;99.90;;;;;;5083513;28;19920;-74
2022/09/24 03:02:07;;;;;;;;;;;9.90;99.90;;;;;;5080929;28;19925;-74
2022/09/24 03:04:33;;;;;;;;;;;9.90;99.90;;;;;;5089758;28;19990;-74
2022/09/24 03:07:00;;;;;;;;;;;10.00;99.90;;;;;;5100513;28;19987;-73
2022/09/24 03:09:27;;;;;;;;;;;10.00;99.90;;;;;;5083135;28;20275;-74
2022/09/24 03:11:56;;;;;;;;;;;10.00;99.90;;;;;;5083374;28;19971;-74
2022/09/24 03:14:24;;;;;;;;;;;9.90;99.90;;;;;;5083075;28;19921;-74
2022/09/24 03:16:51;;;;;;;;;;;9.90;99.90;;;;;;5080385;28;20179;-74
2022/09/24 03:19:18;;;;;;;;;;;9.90;99.90;;;;;;5083425;28;19920;-75
2022/09/24 03:21:44;;;;;;;;;;;9.90;99.90;;;;;;5083074;28;19927;-76
2022/09/24 03:24:11;;;;;;;;;;;9.90;99.90;;;;;;5083130;28;19987;-76
2022/09/24 03:26:37;;;;;;;;;;;9.90;99.90;;;;;;5079620;28;19934;-76
2022/09/24 03:29:04;;;;;;;;;;;9.90;99.90;;;;;;5083035;28;19943;-76
2022/09/24 03:31:31;;;;;;;;;;;9.90;99.90;;;;;;5083147;28;19926;-76
2022/09/24 03:33:58;;;;;;;;;;;9.90;99.90;;;;;;5083408;28;19921;-76
2022/09/24 03:36:25;;;;;;;;;;;9.90;99.90;;;;;;5082142;28;19967;-75
2022/09/24 03:38:55;;;;;;;;;;;9.90;99.90;;;;;;5087108;28;20154;-76
2022/09/24 03:41:22;;;;;;;;;;;9.90;99.90;;;;;;5086525;28;19966;-76
2022/09/24 03:43:48;;;;;;;;;;;9.90;99.90;;;;;;5078635;28;19920;-74
2022/09/24 03:46:16;;;;;;;;;;;9.90;99.90;;;;;;5082278;28;19920;-76
2022/09/24 03:48:45;;;;;;;;;;;9.90;99.90;;;;;;5082615;28;19990;-75
2022/09/24 03:51:13;;;;;;;;;;;9.90;99.90;;;;;;5080985;28;20204;-76
2022/09/24 03:53:40;;;;;;;;;;;9.90;99.90;;;;;;5082770;28;19927;-76
2022/09/24 03:56:07;;;;;;;;;;;9.90;99.90;;;;;;5082249;28;19951;-76
2022/09/24 03:58:36;;;;;;;;;;;9.90;99.90;;;;;;5082747;28;19995;-76
2022/09/24 04:01:03;;;;;;;;;;;9.90;99.90;;;;;;5087892;28;19920;-75
2022/09/24 04:03:30;;;;;;;;;;;9.90;99.90;;;;;;5082844;28;19991;-76
2022/09/24 04:05:57;;;;;;;;;;;9.90;99.90;;;;;;5094947;28;20263;-76
2022/09/24 04:08:24;;;;;;;;;;;9.80;99.90;;;;;;5097820;28;19935;-75
2022/09/24 04:10:51;;;;;;;;;;;9.80;99.90;;;;;;5082548;28;19927;-74
2022/09/24 04:13:18;;;;;;;;;;;9.80;99.90;;;;;;5082679;28;19956;-76
2022/09/24 04:15:45;;;;;;;;;;;9.80;99.90;;;;;;5082704;28;19958;-75
2022/09/24 04:18:13;;;;;;;;;;;9.80;99.90;;;;;;5086660;28;19920;-76
2022/09/24 04:20:40;;;;;;;;;;;9.70;99.90;;;;;;5096845;28;19983;-75
2022/09/24 04:23:08;;;;;;;;;;;9.70;99.90;;;;;;5087969;28;19921;-76
2022/09/24 04:25:34;;;;;;;;;;;9.70;99.90;;;;;;5085825;28;19920;-76
2022/09/24 04:28:02;;;;;;;;;;;9.70;99.90;;;;;;5085989;28;19927;-76
2022/09/24 04:30:30;;;;;;;;;;;9.60;99.90;;;;;;5085949;28;20017;-75
2022/09/24 04:32:59;;;;;;;;;;;9.60;99.90;;;;;;5083847;28;20181;-75
2022/09/24 04:35:28;;;;;;;;;;;9.60;99.90;;;;;;5085345;28;19920;-76
2022/09/24 04:37:55;;;;;;;;;;;9.60;99.90;;;;;;5085930;28;20223;-76
2022/09/24 04:40:23;;;;;;;;;;;9.60;99.90;;;;;;5094368;28;19956;-75
2022/09/24 04:42:50;;;;;;;;;;;9.60;99.90;;;;;;5063490;28;19921;-76
2022/09/24 04:45:18;;;;;;;;;;;9.50;99.90;;;;;;5069139;28;19987;-76
2022/09/24 04:47:51;;;;;;;;;;;9.60;99.90;;;;;;5086272;28;19920;-76
2022/09/24 04:50:18;;;;;;;;;;;9.60;99.90;;;;;;5086002;28;20160;-76
2022/09/24 04:52:44;;;;;;;;;;;9.60;99.90;;;;;;5085458;28;19928;-75
2022/09/24 04:55:11;;;;;;;;;;;9.60;99.90;;;;;;5084677;28;20284;-76
2022/09/24 04:57:40;;;;;;;;;;;9.60;99.90;;;;;;5085861;28;20000;-76
2022/09/24 05:00:08;;;;;;;;;;;9.60;99.90;;;;;;5085426;28;19929;-74
2022/09/24 05:02:35;;;;;;;;;;;9.60;99.90;;;;;;5093699;28;19988;-75
2022/09/24 05:05:02;;;;;;;;;;;9.50;99.90;;;;;;5093148;28;19983;-74
2022/09/24 05:07:28;;;;;;;;;;;9.40;99.90;;;;;;5085169;28;19920;-76
2022/09/24 05:09:56;;;;;;;;;;;9.50;99.90;;;;;;5082855;28;20238;-76
2022/09/24 05:12:22;;;;;;;;;;;9.40;99.90;;;;;;5085649;28;20116;-75
2022/09/24 05:14:50;;;;;;;;;;;9.40;99.90;;;;;;5084674;28;19954;-75
2022/09/24 05:17:17;;;;;;;;;;;9.40;99.90;;;;;;5085602;28;19920;-75
2022/09/24 05:19:44;;;;;;;;;;;9.30;99.90;;;;;;5093018;28;19959;-75
2022/09/24 05:22:11;;;;;;;;;;;9.30;99.90;;;;;;5094572;28;19983;-76
2022/09/24 05:24:37;;;;;;;;;;;9.30;99.90;;;;;;5084753;28;19920;-74
2022/09/24 05:27:09;;;;;;;;;;;9.30;99.90;;;;;;5084721;28;19920;-75
2022/09/24 05:29:44;;;;;;;;;;;9.30;99.90;;;;;;5085882;28;19975;-74
2022/09/24 05:32:14;;;;;;;;;;;9.30;99.90;;;;;;5085374;28;19983;-75
2022/09/24 05:34:43;;;;;;;;;;;9.30;99.90;;;;;;5084843;28;19924;-74
2022/09/24 05:37:11;;;;;;;;;;;9.30;99.90;;;;;;5084957;28;19921;-74
2022/09/24 05:39:37;;;;;;;;;;;9.20;99.90;;;;;;5093062;28;19920;-75
2022/09/24 05:42:04;;;;;;;;;;;9.30;99.90;;;;;;5093123;28;20111;-73
2022/09/24 05:44:31;;;;;;;;;;;9.20;99.90;;;;;;5081650;28;19921;-72
2022/09/24 05:46:58;;;;;;;;;;;9.20;99.90;;;;;;5084876;28;20409;-73
2022/09/24 05:49:26;;;;;;;;;;;9.20;99.90;;;;;;5084748;28;19980;-74
2022/09/24 05:51:52;;;;;;;;;;;9.20;99.90;;;;;;5084222;28;19979;-74
2022/09/24 05:54:19;;;;;;;;;;;9.20;99.90;;;;;;5081698;28;19979;-74
2022/09/24 05:56:46;;;;;;;;;;;9.10;99.90;;;;;;5083833;28;20002;-74
2022/09/24 05:59:12;;;;;;;;;;;9.10;99.90;;;;;;5084792;28;19977;-73
2022/09/24 06:01:39;;;;;;;;;;;9.10;99.90;;;;;;5093033;28;19921;-74
2022/09/24 06:04:06;;;;;;;;;;;9.10;99.90;;;;;;5093292;28;19955;-73
2022/09/24 06:06:34;;;;;;;;;;;9.10;99.90;;;;;;5104138;28;19920;-72
2022/09/24 06:09:00;;;;;;;;;;;9.20;99.90;;;;;;5104695;28;19921;-74
2022/09/24 06:11:31;;;;;;;;;;;9.20;99.90;;;;;;5098760;28;19966;-74
2022/09/24 06:13:58;;;;;;;;;;;9.20;99.90;;;;;;5084087;28;19928;-74
2022/09/24 06:16:25;;;;;;;;;;;9.30;99.90;;;;;;5083788;28;20256;-72
2022/09/24 06:18:51;;;;;;;;;;;9.30;99.90;;;;;;5083769;28;19948;-74
2022/09/24 06:21:18;;;;;;;;;;;9.30;99.90;;;;;;5084353;28;19992;-74
2022/09/24 06:23:46;;;;;;;;;;;9.30;99.90;;;;;;5084227;28;20219;-74
2022/09/24 06:26:13;;;;;;;;;;;9.30;99.90;;;;;;5083526;28;19993;-74
2022/09/24 06:28:41;;;;;;;;;;;9.40;99.90;;;;;;5083998;28;19959;-75
2022/09/24 06:31:08;;;;;;;;;;;9.40;99.90;;;;;;5083205;28;20127;-74
2022/09/24 06:33:36;;;;;;;;;;;9.50;99.90;;;;;;5081512;28;19920;-72
2022/09/24 06:36:04;;;;;;;;;;;9.50;99.90;;;;;;5083196;28;19962;-73
2022/09/24 06:38:30;;;;;;;;;;;9.60;99.90;;;;;;5084364;28;19920;-74
2022/09/24 06:41:00;;;;;;;;;;;9.60;99.90;;;;;;5089857;28;19921;-74
2022/09/24 06:43:27;;;;;;;;;;;9.70;99.90;;;;;;5080062;28;20240;-73
2022/09/24 06:45:57;;;;;;;;;;;9.70;99.90;;;;;;5082916;28;19992;-73
2022/09/24 06:48:23;;;;;;;;;;;9.80;99.90;;;;;;5083231;28;19924;-73
2022/09/24 06:50:50;;;;;;;;;;;9.90;99.90;;;;;;5084170;28;19920;-73
2022/09/24 06:53:17;;;;;;;;;;;9.90;99.90;;;;;;5083900;28;19991;-73
2022/09/24 06:55:43;;;;;;;;;;;10.00;99.90;;;;;;5083095;28;19952;-73
2022/09/24 06:58:12;;;;;;;;;;;10.10;99.90;;;;;;5083876;28;19984;-72
2022/09/24 07:00:39;;;;;;;;;;;10.00;99.90;;;;;;5083679;28;19951;-73
2022/09/24 07:03:06;;;;;;;;;;;10.10;99.90;;;;;;5067026;28;19921;-72
2022/09/24 07:05:33;;;;;;;;;;;10.10;99.90;;;;;;5062809;28;19921;-73
2022/09/24 07:08:00;;;;;;;;;;;10.20;99.90;;;;;;5063383;28;19921;-71
2022/09/24 07:10:27;;;;;;;;;;;10.20;99.90;;;;;;5063659;28;19983;-72
2022/09/24 07:12:54;;;;;;;;;;;10.20;99.90;;;;;;5063453;28;19959;-72
2022/09/24 07:15:22;;;;;;;;;;;10.30;99.90;;;;;;5059927;28;19927;-70
2022/09/24 07:17:48;;;;;;;;;;;10.30;99.90;;;;;;5076283;28;19926;-69
2022/09/24 07:20:15;;;;;;;;;;;10.30;99.90;;;;;;5095572;28;19966;-71
2022/09/24 07:22:42;;;;;;;;;;;10.30;99.90;;;;;;5084375;28;20111;-71
2022/09/24 07:25:09;;;;;;;;;;;10.30;99.90;;;;;;5080597;28;19928;-69
2022/09/24 07:27:36;;;;;;;;;;;10.40;99.90;;;;;;5083062;28;19920;-70
2022/09/24 07:30:04;;;;;;;;;;;10.50;99.90;;;;;;5083574;28;19943;-70
2022/09/24 07:32:32;;;;;;;;;;;10.50;99.90;;;;;;5083467;28;19920;-70
2022/09/24 07:34:59;;;;;;;;;;;10.60;99.90;;;;;;5082489;28;19988;-72
2022/09/24 07:37:26;;;;;;;;;;;10.70;99.90;;;;;;5082525;28;19955;-70
2022/09/24 07:39:52;;;;;;;;;;;10.70;99.90;;;;;;5094943;28;20199;-74
2022/09/24 07:42:20;;;;;;;;;;;10.80;99.90;;;;;;5100963;28;19983;-71
2022/09/24 07:44:47;;;;;;;;;;;10.90;99.90;;;;;;5082523;28;19928;-72
2022/09/24 07:47:15;;;;;;;;;;;11.00;99.90;;;;;;5082501;28;19921;-72
2022/09/24 07:49:43;;;;;;;;;;;11.10;99.90;;;;;;5080663;28;19920;-71
2022/09/24 07:52:10;;;;;;;;;;;11.30;99.90;;;;;;5085673;28;19974;-72
2022/09/24 07:54:37;;;;;;;;;;;11.40;99.90;;;;;;5085911;28;19952;-72
2022/09/24 07:57:03;;;;;;;;;;;11.50;99.90;;;;;;5086730;28;20115;-73
2022/09/24 07:59:31;;;;;;;;;;;11.60;99.90;;;;;;5085571;28;20200;-73
2022/09/24 08:01:58;;;;;;;;;;;11.70;99.90;;;;;;5095382;28;19924;-74
2022/09/24 08:04:24;;;;;;;;;;;11.90;99.90;;;;;;5096983;28;20258;-71
2022/09/24 08:06:52;;;;;;;;;;;12.00;99.90;;;;;;5085510;28;19922;-73
2022/09/24 08:09:19;;;;;;;;;;;12.20;99.90;;;;;;5086448;28;20266;-73
2022/09/24 08:11:48;;;;;;;;;;;12.40;99.90;;;;;;5086375;28;19920;-73
2022/09/24 08:14:15;;;;;;;;;;;12.40;99.90;;;;;;5086621;28;19921;-74
2022/09/24 08:16:41;;;;;;;;;;;12.50;99.90;;;;;;5085870;28;19928;-74
2022/09/24 08:19:12;;;;;;;;;;;12.60;99.90;;;;;;5086117;28;20212;-73
2022/09/24 08:21:39;;;;;;;;;;;12.70;99.90;;;;;;5086240;28;19959;-74
2022/09/24 08:24:07;;;;;;;;;;;12.80;99.90;;;;;;5086593;28;19921;-75
2022/09/24 08:26:34;;;;;;;;;;;12.90;99.90;;;;;;5085143;28;19982;-75
2022/09/24 08:29:00;;;;;;;;;;;13.00;99.90;;;;;;5086193;28;19952;-74
2022/09/24 08:31:27;;;;;;;;;;;13.00;99.90;;;;;;5083483;28;20264;-72
2022/09/24 08:33:54;;;;;;;;;;;13.10;99.90;;;;;;5085967;28;19959;-72
2022/09/24 08:36:20;;;;;;;;;;;13.10;99.90;;;;;;5085005;28;20280;-74
2022/09/24 08:38:47;;;;;;;;;;;13.20;99.90;;;;;;5090180;28;19934;-72
2022/09/24 08:41:28;;;;;;;;;;;13.20;99.90;;;;;;5091074;28;20163;-74
2022/09/24 08:44:01;;;;;;;;;;;13.30;99.90;;;;;;5090660;28;19979;-74
2022/09/24 08:49:16;;;;;;;;;;;13.50;99.90;;;;;;5086068;28;19923;-74
2022/09/24 08:51:50;;;;;;;;;;;13.60;99.90;;;;;;5085802;28;19958;-74
2022/09/24 08:54:17;;;;;;;;;;;13.60;99.90;;;;;;5085516;28;19926;-74
2022/09/24 08:56:45;;;;;;;;;;;13.80;99.90;;;;;;5085525;28;19927;-75
2022/09/24 08:59:18;;;;;;;;;;;13.80;99.90;;;;;;5085654;28;19927;-74
2022/09/24 09:01:46;;;;;;;;;;;13.90;99.90;;;;;;5093906;28;19920;-74
2022/09/24 09:04:21;;;;;;;;;;;13.90;99.90;;;;;;5094253;28;19920;-73
2022/09/24 09:06:54;;;;;;;;;;;14.00;99.90;;;;;;5082579;28;20255;-73
2022/09/24 09:09:23;;;;;;;;;;;14.00;99.90;;;;;;5085349;28;19921;-74
2022/09/24 09:11:52;;;;;;;;;;;14.10;99.90;;;;;;5085077;28;19928;-72
2022/09/24 09:14:20;;;;;;;;;;;14.10;99.90;;;;;;5085370;28;19987;-74
2022/09/24 09:16:49;;;;;;;;;;;14.20;99.90;;;;;;5082206;28;20168;-73
2022/09/24 09:19:16;;;;;;;;;;;14.20;99.90;;;;;;5093130;28;19971;-72
2022/09/24 09:21:51;;;;;;;;;;;14.30;99.90;;;;;;5097058;28;20234;-72
2022/09/24 09:24:19;;;;;;;;;;;14.40;99.90;;;;;;5105780;28;19928;-72
2022/09/24 09:26:47;;;;;;;;;;;14.50;99.90;;;;;;5089978;28;19928;-72
2022/09/24 09:29:16;;;;;;;;;;;14.50;99.90;;;;;;5085262;28;19926;-72
2022/09/24 09:31:49;;;;;;;;;;;14.60;99.90;;;;;;5085058;28;19921;-72
2022/09/24 09:34:23;;;;;;;;;;;14.60;99.90;;;;;;5085140;28;20119;-72
2022/09/24 09:36:57;;;;;;;;;;;14.60;99.90;;;;;;5084215;28;19935;-72
2022/09/24 09:39:32;;;;;;;;;;;14.60;99.90;;;;;;5093398;28;19920;-73
2022/09/24 09:42:03;;;;;;;;;;;14.60;99.90;;;;;;5091561;28;19927;-72
2022/09/24 09:44:36;;;;;;;;;;;14.70;99.90;;;;;;5084817;28;19926;-72
2022/09/24 09:47:11;;;;;;;;;;;14.60;99.90;;;;;;5083506;28;19926;-72
2022/09/24 09:49:38;;;;;;;;;;;14.60;99.90;;;;;;5084660;28;19926;-74
2022/09/24 09:52:15;;;;;;;;;;;14.60;99.90;;;;;;5084892;28;19920;-74
2022/09/24 09:54:42;;;;;;;;;;;14.60;99.90;;;;;;5084113;28;19932;-72
2022/09/24 09:57:13;;;;;;;;;;;14.70;99.90;;;;;;5084609;28;19920;-72
2022/09/24 09:59:45;;;;;;;;;;;14.70;99.90;;;;;;5084339;28;19931;-72
2022/09/24 10:02:18;;;;;;;;;;;14.70;99.90;;;;;;5087094;28;19935;-72
2022/09/24 10:04:45;;;;;;;;;;;14.70;99.90;;;;;;5081262;28;20112;-72
2022/09/24 10:07:12;;;;;;;;;;;14.80;99.90;;;;;;5097628;28;19920;-72
2022/09/24 10:09:40;;;;;;;;;;;14.80;99.90;;;;;;5084298;28;20329;-72
2022/09/24 10:12:18;;;;;;;;;;;14.80;99.90;;;;;;5084305;28;19956;-72
2022/09/24 10:14:56;;;;;;;;;;;14.90;99.90;;;;;;5082319;28;19959;-73
2022/09/24 10:17:25;;;;;;;;;;;14.90;99.90;;;;;;5084053;28;20123;-73
2022/09/24 10:19:53;;;;;;;;;;;14.90;99.90;;;;;;5083831;28;20150;-73
2022/09/24 10:22:22;;;;;;;;;;;14.90;99.90;;;;;;5081229;28;20273;-73
2022/09/24 10:24:50;;;;;;;;;;;14.90;99.90;;;;;;5089196;28;20186;-73
2022/09/24 10:27:23;;;;;;;;;;;15.00;99.90;;;;;;5091787;28;20212;-72
2022/09/24 10:32:33;;;;;;;;;;;15.00;99.90;;;;;;5054867;28;19992;-72
2022/09/24 10:35:04;;;;;;;;;;;15.10;99.90;;;;;;5063188;28;20116;-73
2022/09/24 10:37:31;;;;;;;;;;;15.10;99.90;;;;;;5081242;28;19956;-73
2022/09/24 10:39:58;;;;;;;;;;;15.20;99.90;;;;;;5083461;28;19984;-73
2022/09/24 10:42:26;;;;;;;;;;;15.30;99.90;;;;;;5080930;28;19920;-73
2022/09/24 10:44:54;;;;;;;;;;;15.30;99.90;;;;;;5082987;28;19920;-73
2022/09/24 10:47:26;;;;;;;;;;;15.40;99.90;;;;;;5083382;28;19921;-73
2022/09/24 10:50:17;;;;;;;;;;;15.50;99.90;;;;;;5083431;28;19921;-73
2022/09/24 10:52:46;;;;;;;;;;;15.50;99.90;;;;;;5072959;28;19920;-73
2022/09/24 10:55:19;;;;;;;;;;;15.60;99.90;;;;;;5082682;28;19956;-73
2022/09/24 10:57:52;;;;;;;;;;;15.60;99.90;;;;;;5083062;28;19955;-73
2022/09/24 11:00:21;;;;;;;;;;;15.70;99.90;;;;;;5083720;28;19920;-73
2022/09/24 11:03:12;;;;;;;;;;;15.70;99.90;;;;;;5080702;28;20264;-73
2022/09/24 11:05:42;;;;;;;;;;;15.80;99.90;;;;;;5092464;28;19926;-73
2022/09/24 11:08:13;;;;;;;;;;;15.80;99.90;;;;;;5082969;28;20208;-73
2022/09/24 11:10:53;;;;;;;;;;;15.80;99.90;;;;;;5082806;28;20249;-73
2022/09/24 11:13:23;;;;;;;;;;;15.80;99.90;;;;;;5083220;28;20208;-71
2022/09/24 11:16:03;;;;;;;;;;;15.90;99.90;;;;;;5078983;28;20153;-71
2022/09/24 11:18:34;;;;;;;;;;;15.90;99.90;;;;;;5083593;28;19921;-72
2022/09/24 11:21:04;;;;;;;;;;;15.90;99.90;;;;;;5082273;28;19927;-71
2022/09/24 11:23:50;;;;;;;;;;;15.90;99.90;;;;;;5074630;28;20119;-72
2022/09/24 11:26:22;;;;;;;;;;;15.90;99.90;;;;;;5077334;28;19921;-72
2022/09/24 11:29:05;;;;;;;;;;;16.00;99.90;;;;;;5081521;28;19921;-71
2022/09/24 11:31:37;;;;;;;;;;;16.10;99.90;;;;;;5083368;28;19988;-72
2022/09/24 11:34:11;;;;;;;;;;;16.10;99.90;;;;;;5083192;28;19987;-71
2022/09/24 11:36:47;;;;;;;;;;;16.10;99.90;;;;;;5082176;28;19926;-72
2022/09/24 11:39:17;;;;;;;;;;;16.20;99.90;;;;;;5080645;28;19954;-71
2022/09/24 11:41:48;;;;;;;;;;;16.20;99.90;;;;;;5077021;28;19988;-71
2022/09/24 11:44:32;;;;;;;;;;;16.30;99.90;;;;;;5083181;28;19967;-71
2022/09/24 11:47:08;;;;;;;;;;;16.30;99.90;;;;;;5063061;28;19921;-71
2022/09/24 11:49:52;;;;;;;;;;;16.30;99.90;;;;;;5068434;28;20185;-72
2022/09/24 11:52:25;;;;;;;;;;;16.30;99.90;;;;;;5082643;28;19943;-71
2022/09/24 11:54:56;;;;;;;;;;;16.30;99.90;;;;;;5081900;28;19921;-71
2022/09/24 11:57:28;;;;;;;;;;;16.30;99.90;;;;;;5080016;28;19935;-70
2022/09/24 12:00:00;;;;;;;;;;;16.30;99.90;;;;;;5083095;28;19959;-69
2022/09/24 12:02:30;;;;;;;;;;;16.40;99.90;;;;;;5082878;28;19927;-70
2022/09/24 12:05:00;;;;;;;;;;;16.40;99.90;;;;;;5082166;28;19988;-70
2022/09/24 12:07:32;;;;;;;;;;;16.50;99.90;;;;;;5082882;28;20207;-69
2022/09/24 12:10:02;;;;;;;;;;;16.70;99.90;;;;;;5079891;28;19928;-70
2022/09/24 12:12:31;;;;;;;;;;;16.90;99.90;;;;;;5083166;28;20112;-74
2022/09/24 12:15:00;;;;;;;;;;;17.00;99.90;;;;;;5082453;28;19952;-73
2022/09/24 12:17:31;;;;;;;;;;;17.10;99.90;;;;;;5085612;28;19959;-74
2022/09/24 12:20:00;;;;;;;;;;;17.20;99.90;;;;;;5091414;28;19986;-74
2022/09/24 12:22:27;;;;;;;;;;;17.10;99.90;;;;;;5083082;28;19987;-74
2022/09/24 12:24:57;;;;;;;;;;;17.10;99.90;;;;;;5082466;28;20171;-74
2022/09/24 12:27:27;;;;;;;;;;;17.10;99.90;;;;;;5062836;28;19921;-73
2022/09/24 12:32:55;;;;;;;;;;;17.00;99.90;;;;;;5062722;28;19939;-74
2022/09/24 12:35:31;;;;;;;;;;;16.90;99.90;;;;;;5077943;28;19924;-74
2022/09/24 12:38:00;;;;;;;;;;;16.90;99.90;;;;;;5085854;28;19921;-74
2022/09/24 12:40:37;;;;;;;;;;;16.90;99.90;;;;;;5084453;28;19970;-74
2022/09/24 12:43:07;;;;;;;;;;;16.90;99.90;;;;;;5084592;28;19927;-74
2022/09/24 12:45:35;;;;;;;;;;;16.90;99.90;;;;;;5082658;28;19920;-73
2022/09/24 12:48:03;;;;;;;;;;;16.90;99.90;;;;;;5086324;28;19927;-74
2022/09/24 12:50:31;;;;;;;;;;;16.90;99.90;;;;;;5070546;28;19924;-74
2022/09/24 12:52:57;;;;;;;;;;;17.00;99.90;;;;;;5066470;28;19943;-73
2022/09/24 12:55:25;;;;;;;;;;;17.00;99.90;;;;;;5083056;28;20107;-73
2022/09/24 12:57:53;;;;;;;;;;;17.10;99.90;;;;;;5086400;28;19958;-72
2022/09/24 13:00:39;;;;;;;;;;;17.20;99.90;;;;;;5086110;28;19951;-72
2022/09/24 13:03:27;;;;;;;;;;;17.50;99.90;;;;;;5082726;28;19920;-72
2022/09/24 13:05:56;;;;;;;;;;;17.60;99.90;;;;;;5084868;28;19920;-72
2022/09/24 13:08:24;;;;;;;;;;;17.80;99.90;;;;;;5086047;28;19921;-72
2022/09/24 13:10:53;;;;;;;;;;;18.00;99.90;;;;;;5085650;28;20158;-72
2022/09/24 13:13:22;;;;;;;;;;;18.20;99.90;;;;;;5085785;28;19943;-72
2022/09/24 13:15:56;;;;;;;;;;;18.30;99.90;;;;;;5084969;28;19932;-72
2022/09/24 13:18:24;;;;;;;;;;;18.50;99.90;;;;;;5085490;28;19931;-72
2022/09/24 13:21:00;;;;;;;;;;;18.80;99.90;;;;;;5085591;28;19920;-72
2022/09/24 13:23:44;;;;;;;;;;;18.90;99.90;;;;;;5074423;28;19920;-72
2022/09/24 13:26:13;;;;;;;;;;;18.80;99.90;;;;;;5084591;28;19920;-72
2022/09/24 13:28:54;;;;;;;;;;;18.80;99.90;;;;;;5085571;28;19964;-72
2022/09/24 13:31:25;;;;;;;;;;;18.70;99.90;;;;;;5085380;28;19921;-72
2022/09/24 13:33:55;;;;;;;;;;;18.60;99.90;;;;;;5085471;28;19943;-72
2022/09/24 13:36:25;;;;;;;;;;;18.40;99.90;;;;;;5084782;28;19929;-72
2022/09/24 13:38:56;;;;;;;;;;;18.30;99.90;;;;;;5085462;28;19952;-72
2022/09/24 13:41:27;;;;;;;;;;;18.30;99.90;;;;;;5085195;28;19920;-72
2022/09/24 13:43:56;;;;;;;;;;;18.30;99.90;;;;;;5085690;28;19927;-72
2022/09/24 13:46:23;;;;;;;;;;;18.40;99.90;;;;;;5083653;28;19931;-72
2022/09/24 13:48:51;;;;;;;;;;;18.40;99.90;;;;;;5084020;28;19995;-73
2022/09/24 13:51:21;;;;;;;;;;;18.40;99.90;;;;;;5084171;28;19980;-72
2022/09/24 13:53:50;;;;;;;;;;;18.40;99.90;;;;;;5084015;28;19926;-72
2022/09/24 13:56:18;;;;;;;;;;;18.30;99.90;;;;;;5083691;28;19920;-72
2022/09/24 13:58:45;;;;;;;;;;;18.40;99.90;;;;;;5083726;28;20115;-73
2022/09/24 14:01:12;;;;;;;;;;;18.40;99.90;;;;;;5083454;28;20212;-73
2022/09/24 14:03:39;;;;;;;;;;;18.40;99.90;;;;;;5084944;28;19920;-75
2022/09/24 14:06:09;;;;;;;;;;;18.40;99.90;;;;;;5084347;28;19920;-72
2022/09/24 14:08:40;;;;;;;;;;;18.30;99.90;;;;;;5082455;28;20263;-71
2022/09/24 14:11:13;;;;;;;;;;;18.30;99.90;;;;;;5081500;28;19955;-72
2022/09/24 14:13:43;;;;;;;;;;;18.20;99.90;;;;;;5084216;28;19920;-72
2022/09/24 14:16:12;;;;;;;;;;;18.20;99.90;;;;;;5081007;28;19924;-70
2022/09/24 14:18:39;;;;;;;;;;;18.20;99.90;;;;;;5083831;28;20090;-71
2022/09/24 14:21:09;;;;;;;;;;;18.10;99.90;;;;;;5083217;28;20155;-71
2022/09/24 14:23:39;;;;;;;;;;;18.10;99.90;;;;;;5083722;28;20219;-71
2022/09/24 14:26:06;;;;;;;;;;;18.10;99.90;;;;;;5082868;28;19921;-69
2022/09/24 14:28:34;;;;;;;;;;;18.10;99.90;;;;;;5083421;28;19921;-71
2022/09/24 14:31:01;;;;;;;;;;;18.00;99.90;;;;;;5083829;28;19920;-71
2022/09/24 14:33:30;;;;;;;;;;;17.90;99.90;;;;;;5078721;28;19948;-70
2022/09/24 14:35:58;;;;;;;;;;;17.90;99.90;;;;;;5084989;28;19920;-71
2022/09/24 14:38:28;;;;;;;;;;;17.90;99.90;;;;;;5081128;28;19927;-70
2022/09/24 14:40:58;;;;;;;;;;;17.80;99.90;;;;;;5083313;28;19920;-71
2022/09/24 14:43:30;;;;;;;;;;;17.80;99.90;;;;;;5083249;28;20209;-70